Time;durP1;ratioP1;P1;durP2;ratioP2;P2;SDS_P1;SDS_P2;PMS_P1;PMS_P2;Temp;Humidity;BMP_temperature;BMP_pressure;BME280_temperature;BME280_humidity;BME280_pressure;Samples;Min_cycle;Max_cycle;Signal;HPM_P1;HPM_P2
2022/06/24 00:01:27;;;;;;;3.40;1.58;;;;;;;20.71;100.00;95822.47;4941757;28;20205;-76
2022/06/24 00:03:54;;;;;;;4.57;1.75;;;;;;;20.65;100.00;95822.91;4948053;28;20209;-76
2022/06/24 00:06:22;;;;;;;6.75;2.20;;;;;;;20.63;100.00;95827.88;4962417;28;20224;-75
2022/06/24 00:08:51;;;;;;;3.03;1.77;;;;;;;20.61;100.00;95816.38;4946933;28;20216;-76
2022/06/24 00:11:23;;;;;;;3.55;1.63;;;;;;;20.57;100.00;95815.38;4959900;28;20308;-76
2022/06/24 00:13:50;;;;;;;5.45;1.90;;;;;;;20.53;100.00;95811.63;4938750;28;20235;-76
2022/06/24 00:16:17;;;;;;;2.08;1.27;;;;;;;20.49;100.00;95819.66;4942749;28;20215;-76
2022/06/24 00:18:46;;;;;;;3.78;2.00;;;;;;;20.48;100.00;95809.00;4961490;28;20209;-76
2022/06/24 00:21:14;;;;;;;3.67;1.63;;;;;;;20.39;100.00;95798.75;4961474;28;20216;-76
2022/06/24 00:23:42;;;;;;;4.57;1.60;;;;;;;20.44;100.00;95807.97;4949635;28;20527;-75
2022/06/24 00:26:09;;;;;;;2.85;1.60;;;;;;;20.39;100.00;95806.97;4953335;28;20216;-75
2022/06/24 00:28:38;;;;;;;5.80;1.70;;;;;;;20.36;100.00;95810.31;4939690;28;20223;-75
2022/06/24 00:31:07;;;;;;;4.88;1.70;;;;;;;20.36;100.00;95804.00;4949985;28;20224;-75
2022/06/24 00:33:36;;;;;;;3.13;1.85;;;;;;;20.35;100.00;95808.69;4954960;28;20232;-76
2022/06/24 00:36:06;;;;;;;2.40;1.48;;;;;;;20.33;100.00;95816.38;4947240;28;20223;-75
2022/06/24 00:38:35;;;;;;;3.22;1.48;;;;;;;20.30;100.00;95806.03;4947836;28;20219;-75
2022/06/24 00:41:04;;;;;;;3.25;1.63;;;;;;;20.37;100.00;95806.47;4964581;28;20211;-76
2022/06/24 00:43:36;;;;;;;5.97;1.42;;;;;;;20.35;100.00;95808.69;4964476;28;20220;-75
2022/06/24 00:46:14;;;;;;;3.63;1.63;;;;;;;20.36;100.00;95802.09;4967547;28;20367;-76
2022/06/24 00:48:46;;;;;;;3.75;1.70;;;;;;;20.32;100.00;95794.75;4951915;28;20204;-78
2022/06/24 00:51:14;;;;;;;5.60;1.88;;;;;;;20.32;100.00;95803.81;4966321;28;20241;-76
2022/06/24 00:53:43;;;;;;;2.78;1.50;;;;;;;20.36;100.00;95804.84;4949168;28;20212;-75
2022/06/24 00:56:12;;;;;;;3.65;1.73;;;;;;;20.40;100.00;95799.56;4949008;28;20280;-76
2022/06/24 00:58:39;;;;;;;4.00;1.50;;;;;;;20.38;100.00;95802.59;4941357;28;20234;-75
2022/06/24 01:01:07;;;;;;;3.88;1.50;;;;;;;20.34;100.00;95801.56;4949964;28;20252;-76
2022/06/24 01:03:40;;;;;;;2.90;1.60;;;;;;;20.32;100.00;95806.53;4960479;28;20253;-75
2022/06/24 01:06:08;;;;;;;2.88;1.85;;;;;;;20.34;100.00;95814.47;4946885;28;20221;-76
2022/06/24 01:08:35;;;;;;;3.83;1.83;;;;;;;20.38;100.00;95810.81;4963059;28;20216;-76
2022/06/24 01:11:02;;;;;;;5.13;2.03;;;;;;;20.41;100.00;95812.16;4946583;28;20223;-76
2022/06/24 01:13:30;;;;;;;5.72;1.60;;;;;;;20.40;100.00;95810.53;4965765;28;20240;-76
2022/06/24 01:15:57;;;;;;;4.55;1.77;;;;;;;20.44;100.00;95813.47;4958093;28;20220;-76
2022/06/24 01:18:24;;;;;;;5.20;1.40;;;;;;;20.47;100.00;95815.59;4948761;28;20207;-76
2022/06/24 01:20:53;;;;;;;2.33;1.42;;;;;;;20.41;100.00;95814.09;4966259;28;20224;-75
2022/06/24 01:23:25;;;;;;;3.42;1.63;;;;;;;20.30;100.00;95808.78;4950107;28;20220;-75
2022/06/24 01:25:52;;;;;;;3.80;1.73;;;;;;;20.19;100.00;95807.34;4951287;28;20300;-76
2022/06/24 01:28:20;;;;;;;5.70;1.50;;;;;;;20.18;100.00;95807.63;4961455;28;20260;-75
2022/06/24 01:30:47;;;;;;;5.15;2.05;;;;;;;20.09;100.00;95806.72;4944752;28;20284;-75
2022/06/24 01:33:14;;;;;;;4.47;1.65;;;;;;;20.04;100.00;95813.13;4960704;28;20299;-76
2022/06/24 01:35:41;;;;;;;3.10;1.80;;;;;;;19.99;100.00;95810.47;4955911;28;20224;-75
2022/06/24 01:38:08;;;;;;;4.32;1.67;;;;;;;19.96;100.00;95811.91;4969402;28;20206;-76
2022/06/24 01:40:37;;;;;;;2.65;1.67;;;;;;;19.94;100.00;95807.81;4956941;28;20256;-76
2022/06/24 01:43:04;;;;;;;3.72;1.90;;;;;;;19.89;100.00;95806.00;4966611;28;20260;-75
2022/06/24 01:45:31;;;;;;;5.32;1.70;;;;;;;19.84;100.00;95802.53;4963749;28;20212;-76
2022/06/24 01:47:58;;;;;;;3.05;1.60;;;;;;;19.84;100.00;95802.53;4944592;28;20219;-75
2022/06/24 01:50:25;;;;;;;3.88;1.92;;;;;;;19.81;100.00;95809.44;4935819;28;20276;-75
2022/06/24 01:52:52;;;;;;;4.15;1.90;;;;;;;19.80;100.00;95804.25;4961423;28;20216;-76
2022/06/24 01:55:19;;;;;;;5.70;1.88;;;;;;;19.75;100.00;95807.88;4939017;28;20224;-75
2022/06/24 01:57:48;;;;;;;1.63;1.40;;;;;;;19.69;100.00;95811.84;4960486;28;20229;-76
2022/06/24 02:00:17;;;;;;;5.78;2.00;;;;;;;19.65;100.00;95800.66;4944409;28;20268;-75
2022/06/24 02:02:44;;;;;;;2.55;1.55;;;;;;;19.71;100.00;95809.63;4963853;28;20241;-76
2022/06/24 02:05:12;;;;;;;5.95;2.03;;;;;;;19.70;100.00;95809.91;4973957;28;20315;-75
2022/06/24 02:07:39;;;;;;;5.78;1.95;;;;;;;19.74;100.00;95819.13;4960638;28;20310;-78
2022/06/24 02:15:37;;;;;;;3.45;1.75;;;;;;;19.68;100.00;95817.63;4950049;28;20208;-76
2022/06/24 02:18:05;;;;;;;5.20;1.90;;;;;;;19.68;100.00;95823.91;4946816;28;20208;-75
2022/06/24 02:20:32;;;;;;;4.65;1.88;;;;;;;19.62;100.00;95817.72;4965137;28;20200;-76
2022/06/24 02:22:59;;;;;;;4.97;1.90;;;;;;;19.66;100.00;95812.44;4967143;28;20249;-75
2022/06/24 02:25:26;;;;;;;3.45;1.50;;;;;;;19.71;100.00;95822.50;4945964;28;20300;-76
2022/06/24 02:27:55;;;;;;;4.30;1.50;;;;;;;19.72;100.00;95821.41;4943531;28;20220;-76
2022/06/24 02:30:22;;;;;;;3.05;1.60;;;;;;;19.74;100.00;95819.97;4947197;28;20300;-75
2022/06/24 02:32:49;;;;;;;3.47;1.75;;;;;;;19.77;100.00;95815.81;4944816;28;20276;-75
2022/06/24 02:35:16;;;;;;;4.75;1.85;;;;;;;19.79;100.00;95810.84;4962319;28;20204;-77
2022/06/24 02:37:43;;;;;;;6.25;2.00;;;;;;;19.80;100.00;95810.56;4956439;28;20209;-77
2022/06/24 02:42:58;;;;;;;4.28;1.73;;;;;;;19.76;100.00;95814.19;4944384;28;20224;-76
2022/06/24 02:45:25;;;;;;;2.65;1.30;;;;;;;19.70;100.00;95821.69;4963476;28;20204;-75
2022/06/24 02:47:52;;;;;;;2.13;1.30;;;;;;;19.61;100.00;95810.59;4949972;28;20209;-76
2022/06/24 02:50:20;;;;;;;3.65;1.45;;;;;;;19.55;100.00;95811.81;4966932;28;20236;-76
2022/06/24 02:52:46;;;;;;;5.82;1.67;;;;;;;19.57;100.00;95823.25;4966209;28;20214;-75
2022/06/24 02:55:14;;;;;;;3.55;1.60;;;;;;;19.63;100.00;95815.78;4942978;28;20209;-75
2022/06/24 02:57:41;;;;;;;2.78;1.60;;;;;;;19.62;100.00;95816.91;4946886;28;20593;-75
2022/06/24 03:00:11;;;;;;;6.03;1.50;;;;;;;19.53;100.00;95818.69;4947211;28;20228;-75
2022/06/24 03:02:38;;;;;;;3.45;1.48;;;;;;;19.48;100.00;95827.00;4953816;28;20220;-76
2022/06/24 03:05:06;;;;;;;3.05;1.73;;;;;;;19.50;100.00;95831.06;4953245;28;20292;-76
2022/06/24 03:07:33;;;;;;;3.70;1.90;;;;;;;19.49;100.00;95829.44;4963208;28;20288;-76
2022/06/24 03:10:01;;;;;;;5.20;1.90;;;;;;;19.51;100.00;95831.88;4950676;28;20217;-76
2022/06/24 03:12:28;;;;;;;4.40;1.50;;;;;;;19.52;100.00;95831.56;4943951;28;20232;-76
2022/06/24 03:14:55;;;;;;;3.53;1.95;;;;;;;19.53;100.00;95824.19;4959411;28;20260;-75
2022/06/24 03:17:23;;;;;;;3.33;1.70;;;;;;;19.54;100.00;95812.94;4946463;29;20229;-77
2022/06/24 03:19:51;;;;;;;3.05;2.00;;;;;;;19.43;100.00;95814.16;4962155;28;20216;-75
2022/06/24 03:22:17;;;;;;;4.70;2.15;;;;;;;19.37;100.00;95822.78;4950692;28;20209;-75
2022/06/24 03:24:45;;;;;;;4.65;2.00;;;;;;;19.30;100.00;95812.22;4961783;28;20323;-75
2022/06/24 03:27:12;;;;;;;3.70;1.90;;;;;;;19.29;100.00;95818.78;4963496;28;20213;-75
2022/06/24 03:29:39;;;;;;;3.85;1.90;;;;;;;19.34;100.00;95818.69;4943763;28;20214;-76
2022/06/24 03:32:06;;;;;;;5.43;2.20;;;;;;;19.32;100.00;95823.66;4944032;29;20240;-76
2022/06/24 03:34:34;;;;;;;2.38;1.35;;;;;;;19.21;100.00;95812.06;4948176;28;20287;-76
2022/06/24 03:37:02;;;;;;;5.53;1.77;;;;;;;19.21;100.00;95830.41;4948043;28;20227;-76
2022/06/24 03:39:30;;;;;;;3.20;1.87;;;;;;;19.16;100.00;95834.03;4938285;28;20202;-76
2022/06/24 03:41:57;;;;;;;3.17;1.83;;;;;;;19.13;100.00;95820.16;4957813;28;20225;-77
2022/06/24 03:44:24;;;;;;;5.53;2.10;;;;;;;19.05;100.00;95815.34;4963073;28;20220;-75
2022/06/24 03:46:51;;;;;;;4.33;1.90;;;;;;;18.97;100.00;95814.06;4947763;28;20220;-76
2022/06/24 03:49:19;;;;;;;5.90;1.93;;;;;;;18.96;100.00;95814.38;4965730;28;20217;-75
2022/06/24 03:51:47;;;;;;;3.17;1.83;;;;;;;19.05;100.00;95815.34;4945525;28;20212;-75
2022/06/24 03:54:14;;;;;;;3.70;1.80;;;;;;;19.14;100.00;95817.09;4946405;28;20220;-76
2022/06/24 03:56:41;;;;;;;9.57;2.20;;;;;;;19.20;100.00;95812.38;4944577;28;20360;-75
2022/06/24 03:59:08;;;;;;;3.00;2.17;;;;;;;19.19;100.00;95810.72;4962908;28;20197;-77
2022/06/24 04:01:35;;;;;;;5.90;2.00;;;;;;;19.20;100.00;95815.09;4959412;28;20209;-75
2022/06/24 04:04:03;;;;;;;3.47;1.80;;;;;;;19.28;100.00;95803.47;4964342;28;20260;-76
2022/06/24 04:06:30;;;;;;;3.88;2.00;;;;;;;19.25;100.00;95796.66;4945710;28;20203;-76
2022/06/24 04:08:58;;;;;;;3.33;1.60;;;;;;;19.27;100.00;95801.84;4950081;28;20219;-76
2022/06/24 04:11:25;;;;;;;4.60;1.92;;;;;;;19.33;100.00;95808.03;4944015;28;20217;-75
2022/06/24 04:13:52;;;;;;;9.07;2.20;;;;;;;19.33;100.00;95797.91;4942416;28;20276;-76
2022/06/24 04:16:20;;;;;;;2.75;2.20;;;;;;;19.38;100.00;95800.56;4951882;28;20212;-76
2022/06/24 04:18:48;;;;;;;7.20;2.60;;;;;;;19.36;100.00;95802.78;4941705;28;20224;-76
2022/06/24 04:21:16;;;;;;;2.88;1.85;;;;;;;19.37;100.00;95807.16;4944006;28;20209;-75
2022/06/24 04:23:45;;;;;;;2.55;1.80;;;;;;;19.40;100.00;95809.28;4962925;28;20336;-76
2022/06/24 04:26:14;;;;;;;3.65;1.60;;;;;;;19.43;100.00;95811.44;4965919;28;20265;-75
2022/06/24 04:28:41;;;;;;;4.95;2.28;;;;;;;19.41;100.00;95805.44;4967048;28;20213;-77
2022/06/24 04:31:08;;;;;;;5.90;2.10;;;;;;;19.46;100.00;95808.09;4951298;28;20209;-76
2022/06/24 04:33:35;;;;;;;7.05;2.60;;;;;;;19.50;100.00;95806.41;4964309;28;20248;-75
2022/06/24 04:36:02;;;;;;;5.40;2.67;;;;;;;19.56;100.00;95801.69;4966022;28;20304;-76
2022/06/24 04:38:29;;;;;;;3.35;1.77;;;;;;;19.60;100.00;95811.72;4947018;28;20212;-76
2022/06/24 04:40:56;;;;;;;5.00;1.98;;;;;;;19.59;100.00;95818.31;4967700;28;20216;-77
2022/06/24 04:43:25;;;;;;;7.38;2.30;;;;;;;19.64;100.00;95820.97;4960519;28;20224;-76
2022/06/24 04:45:52;;;;;;;4.55;2.45;;;;;;;19.64;100.00;95807.28;4952914;28;20535;-76
2022/06/24 04:48:19;;;;;;;4.45;2.08;;;;;;;19.64;100.00;95818.25;4949130;28;20241;-75
2022/06/24 04:50:46;;;;;;;5.10;1.83;;;;;;;19.61;100.00;95816.09;4964850;28;20209;-76
2022/06/24 04:53:13;;;;;;;5.07;2.10;;;;;;;19.55;100.00;95817.28;4966503;28;20237;-76
2022/06/24 04:55:40;;;;;;;2.88;1.83;;;;;;;19.46;100.00;95819.06;4939436;28;20239;-76
2022/06/24 04:58:07;;;;;;;5.20;2.33;;;;;;;19.45;100.00;95816.63;4962930;28;20264;-76
2022/06/24 05:00:35;;;;;;;5.15;2.10;;;;;;;19.44;100.00;95818.53;4964678;28;20209;-76
2022/06/24 05:03:03;;;;;;;4.05;2.20;;;;;;;19.51;100.00;95810.78;4945087;29;20209;-75
2022/06/24 05:05:30;;;;;;;5.03;2.10;;;;;;;19.52;100.00;95809.66;4963224;28;20216;-76
2022/06/24 05:07:57;;;;;;;8.02;2.25;;;;;;;19.52;100.00;95814.31;4950838;29;20214;-76
2022/06/24 05:10:24;;;;;;;5.45;2.10;;;;;;;19.53;100.00;95802.25;4963784;28;20265;-76
2022/06/24 05:12:51;;;;;;;3.90;2.15;;;;;;;19.58;100.00;95800.25;4944206;28;20232;-76
2022/06/24 05:15:18;;;;;;;5.80;2.40;;;;;;;19.58;100.00;95788.47;4954210;28;20204;-76
2022/06/24 05:17:47;;;;;;;5.95;2.10;;;;;;;19.59;100.00;95785.44;4949692;28;20260;-76
2022/06/24 05:20:14;;;;;;;4.38;2.45;;;;;;;19.65;100.00;95788.88;4945272;28;20213;-75
2022/06/24 05:22:41;;;;;;;3.97;2.17;;;;;;;19.69;100.00;95792.66;4964968;28;20257;-76
2022/06/24 05:25:09;;;;;;;4.75;2.15;;;;;;;19.68;100.00;95792.97;4944838;28;20212;-76
2022/06/24 05:27:36;;;;;;;4.80;2.15;;;;;;;19.53;100.00;95774.88;4967772;28;20371;-76
2022/06/24 05:30:05;;;;;;;7.55;2.95;;;;;;;19.58;100.00;95774.78;4939102;28;20248;-75
2022/06/24 05:32:32;;;;;;;4.15;2.42;;;;;;;19.61;100.00;95771.44;4953688;28;20262;-73
2022/06/24 05:35:01;;;;;;;4.28;2.33;;;;;;;19.61;100.00;95761.31;4961142;28;20197;-73
2022/06/24 05:37:28;;;;;;;4.90;2.40;;;;;;;19.68;100.00;95762.84;4949147;28;20220;-73
2022/06/24 05:39:55;;;;;;;4.50;2.67;;;;;;;19.64;100.00;95766.19;4946507;28;20205;-72
2022/06/24 05:42:22;;;;;;;9.32;2.85;;;;;;;19.58;100.00;95759.16;4959812;28;20196;-73
2022/06/24 05:44:49;;;;;;;6.13;2.47;;;;;;;19.58;100.00;95759.16;4947193;28;20231;-73
2022/06/24 05:47:16;;;;;;;4.80;2.35;;;;;;;19.53;100.00;95770.22;4946200;28;20209;-74
2022/06/24 05:49:43;;;;;;;16.23;4.35;;;;;;;19.55;100.00;95770.75;4956055;28;20208;-73
2022/06/24 05:52:12;;;;;;;8.85;2.80;;;;;;;19.56;100.00;95780.56;4949611;28;20228;-73
2022/06/24 05:57:23;;;;;;;4.43;2.42;;;;;;;19.47;100.00;95782.38;4951803;28;20241;-73
2022/06/24 05:59:51;;;;;;;6.22;2.75;;;;;;;19.58;100.00;95778.34;4963129;28;20275;-72
2022/06/24 06:02:18;;;;;;;3.92;2.33;;;;;;;19.67;100.00;95780.38;4965850;28;20309;-73
2022/06/24 06:04:45;;;;;;;3.80;2.35;;;;;;;19.67;100.00;95770.25;4968466;28;20225;-74
2022/06/24 06:07:14;;;;;;;5.65;2.63;;;;;;;19.72;100.00;95764.69;4942729;28;20217;-74
2022/06/24 06:09:41;;;;;;;4.35;2.50;;;;;;;19.78;100.00;95770.88;4965630;28;20213;-73
2022/06/24 06:12:09;;;;;;;6.22;2.38;;;;;;;19.73;100.00;95770.97;4950259;28;20247;-75
2022/06/24 06:14:36;;;;;;;6.63;2.20;;;;;;;19.68;100.00;95766.38;4949151;28;20430;-76
2022/06/24 06:17:03;;;;;;;8.90;2.63;;;;;;;19.66;100.00;95760.41;4945580;28;20205;-75
2022/06/24 06:19:32;;;;;;;4.13;2.10;;;;;;;19.71;100.00;95756.75;4944442;28;20232;-75
2022/06/24 06:21:59;;;;;;;4.95;2.30;;;;;;;19.70;100.00;95746.91;4959020;28;20287;-76
2022/06/24 06:24:28;;;;;;;4.00;2.35;;;;;;;19.76;100.00;95759.41;4963838;28;20279;-77
2022/06/24 06:26:55;;;;;;;6.95;2.30;;;;;;;19.81;100.00;95749.19;4948629;28;20242;-75
2022/06/24 06:29:22;;;;;;;7.97;2.92;;;;;;;19.88;100.00;95751.50;4949686;28;20220;-75
2022/06/24 06:31:50;;;;;;;4.82;2.30;;;;;;;19.85;100.00;95736.47;4946397;28;20209;-76
2022/06/24 06:34:19;;;;;;;4.70;2.42;;;;;;;19.92;100.00;95747.84;4965175;28;20303;-76
2022/06/24 06:36:46;;;;;;;11.88;4.18;;;;;;;19.86;100.00;95740.03;4968594;28;20197;-75
2022/06/24 06:39:13;;;;;;;8.23;3.80;;;;;;;19.80;100.00;95741.25;4949901;28;20217;-75
2022/06/24 06:41:41;;;;;;;10.77;4.22;;;;;;;19.80;100.00;95739.31;4945501;28;20216;-76
2022/06/24 06:44:08;;;;;;;7.78;3.40;;;;;;;19.75;100.00;95733.94;4968581;28;20224;-75
2022/06/24 06:46:35;;;;;;;10.57;4.45;;;;;;;19.85;100.00;95730.19;4964991;28;20203;-75
2022/06/24 06:49:02;;;;;;;10.48;4.93;;;;;;;19.92;100.00;95728.66;4952302;28;20311;-75
2022/06/24 06:51:29;;;;;;;14.55;7.25;;;;;;;19.91;100.00;95724.28;4967386;28;20197;-75
2022/06/24 06:53:56;;;;;;;22.13;8.98;;;;;;;19.91;100.00;95732.50;4947405;28;20223;-75
2022/06/24 06:56:24;;;;;;;22.35;9.05;;;;;;;19.99;100.00;95728.25;4945893;28;20324;-75
2022/06/24 06:58:52;;;;;;;20.20;8.00;;;;;;;20.00;100.00;95727.13;4963084;28;20220;-75
2022/06/24 07:01:19;;;;;;;10.70;4.63;;;;;;;20.05;100.00;95716.09;4958180;28;20231;-75
2022/06/24 07:03:46;;;;;;;6.22;3.05;;;;;;;19.70;100.00;95709.38;4961972;28;20209;-75
2022/06/24 07:06:13;;;;;;;4.20;2.03;;;;;;;19.64;100.00;95700.47;4946826;28;20208;-76
2022/06/24 07:08:40;;;;;;;5.37;2.63;;;;;;;19.62;100.00;95679.97;4962987;28;20214;-73
2022/06/24 07:11:07;;;;;;;4.60;2.70;;;;;;;19.61;100.00;95679.16;4960706;28;20203;-74
2022/06/24 07:13:34;;;;;;;5.50;3.07;;;;;;;19.57;100.00;95667.16;4938203;28;20252;-72
2022/06/24 07:16:03;;;;;;;6.43;3.22;;;;;;;19.61;100.00;95667.38;4943147;28;20217;-72
2022/06/24 07:18:30;;;;;;;8.03;3.97;;;;;;;19.71;100.00;95666.38;4941632;28;20217;-73
2022/06/24 07:20:57;;;;;;;6.57;3.17;;;;;;;19.79;100.00;95660.19;4949936;28;20268;-73
2022/06/24 07:23:24;;;;;;;5.60;2.72;;;;;;;20.08;100.00;95654.34;4957472;28;20264;-73
2022/06/24 07:25:51;;;;;;;9.10;2.88;;;;;;;20.26;100.00;95646.00;4944505;28;20232;-73
2022/06/24 07:28:18;;;;;;;5.22;2.45;;;;;;;20.47;100.00;95643.66;4943679;28;20197;-73
2022/06/24 07:30:45;;;;;;;10.77;3.20;;;;;;;20.60;100.00;95647.44;4940969;28;20216;-73
2022/06/24 07:33:13;;;;;;;9.50;3.42;;;;;;;20.56;100.00;95638.22;4958193;28;20217;-74
2022/06/24 07:35:40;;;;;;;6.03;2.83;;;;;;;20.50;100.00;95639.47;4940252;29;20300;-72
2022/06/24 07:38:07;;;;;;;6.43;2.58;;;;;;;20.38;100.00;95626.31;4948540;28;20247;-72
2022/06/24 07:40:34;;;;;;;3.33;2.00;;;;;;;20.37;100.00;95620.00;4948919;28;20213;-72
2022/06/24 07:43:01;;;;;;;3.33;2.40;;;;;;;20.33;100.00;95613.47;4948689;28;20220;-74
2022/06/24 07:45:29;;;;;;;4.45;2.10;;;;;;;20.41;100.00;95605.69;4949579;28;20225;-72
2022/06/24 07:47:56;;;;;;;5.03;2.40;;;;;;;20.45;100.00;95593.78;4967364;28;20295;-73
2022/06/24 07:50:24;;;;;;;3.55;2.13;;;;;;;20.58;100.00;95595.66;4947895;28;20212;-72
2022/06/24 07:52:51;;;;;;;7.07;3.22;;;;;;;20.79;100.00;95593.22;4941974;28;20210;-71
2022/06/24 07:58:03;;;;;;;6.05;2.85;;;;;;;21.06;100.00;95593.06;4962353;28;20322;-72
2022/06/24 08:00:30;;;;;;;8.68;2.40;;;;;;;21.24;100.00;95593.16;4947632;28;20205;-73
2022/06/24 08:02:57;;;;;;;5.03;1.70;;;;;;;21.36;100.00;95590.63;4966712;28;20208;-74
2022/06/24 08:05:25;;;;;;;4.50;2.08;;;;;;;21.37;100.00;95592.25;4951226;28;20255;-72
2022/06/24 08:07:52;;;;;;;6.82;2.63;;;;;;;21.41;100.00;95605.03;4957314;28;20268;-73
2022/06/24 08:10:20;;;;;;;3.95;2.20;;;;;;;21.18;100.00;95589.72;4940148;29;20302;-72
2022/06/24 08:12:47;;;;;;;6.80;2.90;;;;;;;21.12;100.00;95589.03;4938534;28;20209;-71
2022/06/24 08:15:16;;;;;;;3.67;2.20;;;;;;;21.08;100.00;95582.56;4958241;28;20206;-72
2022/06/24 08:17:43;;;;;;;6.55;2.55;;;;;;;21.16;100.00;95578.25;4936520;29;20214;-73
2022/06/24 08:20:11;;;;;;;4.22;2.45;;;;;;;21.14;100.00;95584.03;4941612;29;20197;-71
2022/06/24 08:22:39;;;;;;;4.75;2.28;;;;;;;21.12;100.00;95575.31;4951810;28;20256;-72
2022/06/24 08:25:07;;;;;;;4.65;2.30;;;;;;;21.13;100.00;95565.16;4958469;28;20225;-71
2022/06/24 08:27:34;;;;;;;3.85;2.10;;;;;;;21.20;100.00;95568.28;4939046;28;20212;-72
2022/06/24 08:30:03;;;;;;;4.45;2.42;;;;;;;21.21;100.00;95571.81;4933933;28;20217;-74
2022/06/24 08:32:30;;;;;;;5.00;2.40;;;;;;;21.23;100.00;95577.81;4942230;28;20252;-73
2022/06/24 08:34:57;;;;;;;5.70;2.35;;;;;;;21.32;100.00;95568.50;4963616;28;20504;-73
2022/06/24 08:37:24;;;;;;;5.97;2.65;;;;;;;21.38;100.00;95571.91;4943049;28;20216;-72
2022/06/24 08:39:53;;;;;;;8.82;2.53;;;;;;;21.44;100.00;95576.94;4954127;28;20218;-74
2022/06/24 08:42:20;;;;;;;3.47;2.30;;;;;;;21.50;100.00;95586.66;4962988;28;20298;-74
2022/06/24 08:44:48;;;;;;;5.35;2.35;;;;;;;21.53;100.00;95585.19;4957041;28;20252;-73
2022/06/24 08:47:15;;;;;;;4.65;2.17;;;;;;;21.61;100.00;95580.84;4960222;28;20221;-73
2022/06/24 08:49:43;;;;;;;3.75;2.03;;;;;;;21.60;100.00;95574.56;4953161;28;20209;-73
2022/06/24 08:52:13;;;;;;;4.82;2.30;;;;;;;21.47;100.00;95572.75;4963163;28;20201;-72
2022/06/24 08:54:43;;;;;;;8.15;2.75;;;;;;;21.32;100.00;95573.19;4967808;28;20279;-71
2022/06/24 08:57:13;;;;;;;4.07;2.03;;;;;;;21.32;100.00;95573.97;4936717;28;20245;-72
2022/06/24 08:59:42;;;;;;;5.63;2.20;;;;;;;21.43;100.00;95574.53;4959028;28;20244;-71
2022/06/24 09:02:13;;;;;;;4.75;2.35;;;;;;;21.47;100.00;95565.31;4944325;28;20213;-71
2022/06/24 09:04:44;;;;;;;5.93;2.55;;;;;;;21.61;100.00;95570.66;4953340;28;20232;-71
2022/06/24 09:07:18;;;;;;;5.18;2.20;;;;;;;21.66;100.00;95573.28;4950299;28;20231;-72
2022/06/24 09:09:58;;;;;;;6.85;2.50;;;;;;;21.48;100.00;95569.69;4963052;28;20204;-72
2022/06/24 09:12:29;;;;;;;6.25;2.55;;;;;;;21.44;100.00;95578.84;4953783;28;20217;-71
2022/06/24 09:14:56;;;;;;;4.97;2.30;;;;;;;21.39;100.00;95577.06;4951603;28;20236;-71
2022/06/24 09:17:29;;;;;;;3.90;2.10;;;;;;;21.37;100.00;95586.75;4960248;28;20219;-72
2022/06/24 09:20:04;;;;;;;7.13;2.20;;;;;;;21.36;100.00;95580.44;4948291;28;20209;-71
2022/06/24 09:22:31;;;;;;;5.78;2.35;;;;;;;21.33;100.00;95570.13;4955124;28;20217;-71
2022/06/24 09:25:01;;;;;;;6.93;2.33;;;;;;;21.34;100.00;95554.44;4961553;28;20225;-71
2022/06/24 09:27:29;;;;;;;3.72;2.20;;;;;;;21.38;100.00;95553.47;4959136;28;20256;-72
2022/06/24 09:29:57;;;;;;;4.93;3.10;;;;;;;21.43;100.00;95552.56;4962054;28;20206;-71
2022/06/24 09:32:24;;;;;;;6.18;2.45;;;;;;;21.43;100.00;95558.03;4951425;28;20209;-73
2022/06/24 09:35:06;;;;;;;4.40;2.30;;;;;;;21.37;100.00;95556.53;4960648;28;20206;-71
2022/06/24 09:37:41;;;;;;;7.18;2.38;;;;;;;21.35;100.00;95565.09;4945796;29;20292;-72
2022/06/24 09:40:27;;;;;;;11.60;2.90;;;;;;;21.31;100.00;95579.78;4946239;29;20204;-70
2022/06/24 09:43:00;;;;;;;5.00;2.70;;;;;;;21.18;100.00;95577.97;4943130;28;20219;-72
2022/06/24 09:45:43;;;;;;;7.80;2.80;;;;;;;20.98;100.00;95591.06;4959464;28;20233;-71
2022/06/24 09:48:11;;;;;;;6.82;2.60;;;;;;;20.91;100.00;95590.72;4951504;28;20213;-71
2022/06/24 09:50:40;;;;;;;6.07;2.78;;;;;;;20.91;100.00;95589.91;4947891;28;20245;-71
2022/06/24 09:53:08;;;;;;;6.03;2.60;;;;;;;20.73;100.00;95583.50;4944845;28;20241;-71
2022/06/24 09:55:37;;;;;;;9.23;3.10;;;;;;;20.67;100.00;95596.50;4966737;28;20222;-74
2022/06/24 09:58:06;;;;;;;5.22;2.30;;;;;;;20.70;100.00;95606.06;4942965;28;20243;-72
2022/06/24 10:00:43;;;;;;;4.85;2.80;;;;;;;20.80;100.00;95594.84;4970023;28;20208;-72
2022/06/24 10:03:12;;;;;;;6.70;2.92;;;;;;;20.90;100.00;95600.06;4950424;28;20236;-73
2022/06/24 10:05:42;;;;;;;8.55;2.70;;;;;;;20.97;100.00;95591.38;4943431;28;20220;-72
2022/06/24 10:08:12;;;;;;;5.18;2.63;;;;;;;21.03;100.00;95599.16;4940464;28;20228;-76
2022/06/24 10:10:44;;;;;;;6.43;2.85;;;;;;;21.09;100.00;95592.44;4949801;28;20212;-73
2022/06/24 10:13:19;;;;;;;3.28;2.15;;;;;;;21.13;100.00;95589.84;4951160;28;20197;-73
2022/06/24 10:15:46;;;;;;;4.85;2.55;;;;;;;21.13;100.00;95582.44;4941001;28;20245;-75
2022/06/24 10:18:15;;;;;;;5.65;2.28;;;;;;;21.10;100.00;95580.31;4962461;28;20201;-76
2022/06/24 10:20:45;;;;;;;5.75;2.58;;;;;;;21.17;100.00;95590.88;4946226;28;20205;-74
2022/06/24 10:23:36;;;;;;;7.47;2.60;;;;;;;21.09;100.00;95602.59;4942285;28;20220;-73
2022/06/24 10:26:10;;;;;;;6.03;2.55;;;;;;;21.06;100.00;95604.03;4949222;28;20260;-73
2022/06/24 10:29:19;;;;;;;6.25;2.50;;;;;;;21.04;100.00;95616.44;4947316;28;20213;-75
2022/06/24 10:31:58;;;;;;;7.05;2.50;;;;;;;20.97;100.00;95611.41;4949408;28;20355;-73
2022/06/24 10:34:32;;;;;;;7.13;3.20;;;;;;;20.88;100.00;95613.28;4952139;28;20229;-73
2022/06/24 10:37:02;;;;;;;8.40;2.60;;;;;;;20.81;100.00;95618.41;4966985;28;20250;-73
2022/06/24 10:39:30;;;;;;;6.10;2.50;;;;;;;20.67;100.00;95615.72;4967646;28;20239;-73
2022/06/24 10:42:02;;;;;;;6.47;2.67;;;;;;;20.66;100.00;95605.88;4965203;28;20216;-75
2022/06/24 10:44:31;;;;;;;5.72;2.80;;;;;;;20.77;100.00;95607.22;4958614;28;20221;-72
2022/06/24 10:47:28;;;;;;;6.32;3.40;;;;;;;20.97;100.00;95599.63;4946560;28;20256;-73
2022/06/24 10:50:14;;;;;;;6.38;3.05;;;;;;;21.22;100.00;95589.91;4943245;28;20394;-74
2022/06/24 10:52:55;;;;;;;6.53;3.35;;;;;;;21.33;100.00;95600.31;4944920;28;20219;-76
2022/06/24 10:55:33;;;;;;;6.60;2.90;;;;;;;21.44;100.00;95592.59;4949063;28;20219;-74
2022/06/24 10:58:03;;;;;;;8.23;3.10;;;;;;;21.48;100.00;95594.41;4946247;28;20244;-75
2022/06/24 11:00:55;;;;;;;8.13;3.22;;;;;;;21.46;100.00;95588.41;4950107;28;20223;-74
2022/06/24 11:03:29;;;;;;;7.82;3.10;;;;;;;21.57;100.00;95588.13;4965382;28;20296;-74
2022/06/24 11:05:57;;;;;;;7.35;3.20;;;;;;;21.71;100.00;95581.38;4963844;28;20229;-73
2022/06/24 11:08:25;;;;;;;9.18;3.17;;;;;;;21.86;100.00;95591.13;4957980;28;20217;-75
2022/06/24 11:10:53;;;;;;;5.47;2.53;;;;;;;21.74;100.00;95575.25;4963762;28;20272;-74
2022/06/24 11:13:23;;;;;;;6.50;2.80;;;;;;;21.81;100.00;95589.31;4943403;28;20205;-74
2022/06/24 11:15:53;;;;;;;8.30;2.90;;;;;;;21.78;100.00;95598.19;4949663;28;20375;-73
2022/06/24 11:18:23;;;;;;;7.32;2.60;;;;;;;21.69;100.00;95593.84;4945916;28;20209;-74
2022/06/24 11:20:54;;;;;;;5.93;3.03;;;;;;;21.65;100.00;95582.66;4946950;28;20240;-75
2022/06/24 11:23:23;;;;;;;7.30;2.88;;;;;;;21.67;100.00;95599.63;4950505;28;20232;-74
2022/06/24 11:25:51;;;;;;;7.90;2.83;;;;;;;21.72;100.00;95599.47;4937334;28;20235;-74
2022/06/24 11:28:21;;;;;;;5.10;2.58;;;;;;;21.70;100.00;95596.22;4943470;28;20208;-73
2022/06/24 11:30:49;;;;;;;9.55;3.15;;;;;;;21.78;100.00;95600.94;4958410;28;20201;-74
2022/06/24 11:33:16;;;;;;;8.45;3.08;;;;;;;21.67;100.00;95596.91;4945388;28;20212;-78
2022/06/24 11:35:43;;;;;;;5.85;3.05;;;;;;;21.74;100.00;95593.66;4947437;28;20271;-74
2022/06/24 11:38:13;;;;;;;6.88;2.97;;;;;;;21.70;100.00;95598.97;4963804;28;20196;-75
2022/06/24 11:40:40;;;;;;;5.80;2.78;;;;;;;21.80;100.00;95614.38;4951681;28;20201;-73
2022/06/24 11:43:11;;;;;;;6.88;2.80;;;;;;;21.73;100.00;95612.09;4948982;28;20259;-75
2022/06/24 11:45:40;;;;;;;5.32;2.60;;;;;;;21.58;100.00;95603.47;4947481;28;20228;-74